Time;durP1;ratioP1;P1;durP2;ratioP2;P2;SDS_P1;SDS_P2;PMS_P1;PMS_P2;Temp;Humidity;BMP_temperature;BMP_pressure;BME280_temperature;BME280_humidity;BME280_pressure;Samples;Min_cycle;Max_cycle;Signal;HPM_P1;HPM_P2
2023/04/11 00:00:28;;;;;;;4.13;3.30;;;21.70;65.30;;;;;;5096591;28;20831;-84
2023/04/11 00:02:58;;;;;;;6.70;3.47;;;21.70;65.20;;;;;;5096477;28;20494;-87
2023/04/11 00:05:27;;;;;;;4.70;3.83;;;21.70;65.20;;;;;;5096640;28;20515;-85
2023/04/11 00:07:54;;;;;;;3.93;3.10;;;21.70;65.30;;;;;;5096550;28;20447;-85
2023/04/11 00:10:21;;;;;;;5.57;3.77;;;21.70;65.20;;;;;;5096364;28;20442;-85
2023/04/11 00:12:47;;;;;;;3.53;3.10;;;21.70;65.20;;;;;;5096414;28;20435;-85
2023/04/11 00:15:15;;;;;;;5.43;4.03;;;21.70;65.20;;;;;;5096230;28;20519;-85
2023/04/11 00:17:44;;;;;;;3.23;2.90;;;21.70;65.20;;;;;;5096212;28;20431;-85
2023/04/11 00:20:11;;;;;;;5.73;4.17;;;21.70;65.30;;;;;;5096216;28;20439;-85
2023/04/11 00:22:40;;;;;;;3.60;3.30;;;21.70;65.20;;;;;;5096075;28;20570;-85
2023/04/11 00:25:08;;;;;;;4.00;3.00;;;21.80;65.40;;;;;;5096202;28;20513;-85
2023/04/11 00:27:35;;;;;;;4.37;3.10;;;21.70;65.30;;;;;;5095948;28;20435;-85
2023/04/11 00:30:02;;;;;;;4.60;3.20;;;21.70;65.20;;;;;;5095976;28;20778;-85
2023/04/11 00:32:29;;;;;;;4.03;3.40;;;21.60;65.10;;;;;;5095774;28;20495;-85
2023/04/11 00:34:56;;;;;;;3.97;3.00;;;21.70;65.20;;;;;;5095857;28;20444;-85
2023/04/11 00:37:22;;;;;;;4.73;3.53;;;21.70;65.20;;;;;;5095812;28;21034;-85
2023/04/11 00:39:51;;;;;;;4.73;3.17;;;21.80;65.30;;;;;;5095901;28;20432;-85
2023/04/11 00:42:19;;;;;;;3.67;3.13;;;21.70;65.20;;;;;;5095716;28;20541;-85
2023/04/11 00:44:46;;;;;;;3.63;3.20;;;21.70;65.20;;;;;;5095764;28;20440;-92
2023/04/11 00:47:13;;;;;;;3.40;2.73;;;21.60;65.00;;;;;;5095681;28;20526;-85
2023/04/11 00:49:41;;;;;;;3.50;3.20;;;21.60;65.00;;;;;;5095406;28;20440;-90
2023/04/11 00:52:08;;;;;;;3.67;2.83;;;21.60;65.10;;;;;;5095633;28;20446;-85
2023/04/11 00:54:35;;;;;;;3.47;2.83;;;21.60;65.10;;;;;;5095745;28;20440;-91
2023/04/11 00:57:05;;;;;;;3.57;3.27;;;21.60;65.10;;;;;;5095466;28;20790;-85
2023/04/11 00:59:33;;;;;;;3.13;2.53;;;21.60;65.00;;;;;;5095584;28;20488;-91
2023/04/11 01:02:01;;;;;;;4.13;3.33;;;21.60;65.00;;;;;;5094845;28;20490;-85
2023/04/11 01:04:29;;;;;;;3.03;2.67;;;21.60;65.10;;;;;;5095504;28;20443;-85
2023/04/11 01:07:02;;;;;;;4.23;2.87;;;21.60;65.00;;;;;;5095371;28;20497;-85
2023/04/11 01:09:31;;;;;;;4.77;3.00;;;21.60;65.10;;;;;;5095336;28;20500;-85
2023/04/11 01:12:00;;;;;;;3.10;2.80;;;21.60;65.10;;;;;;5094736;28;20444;-85
2023/04/11 01:14:29;;;;;;;2.97;2.60;;;21.60;65.10;;;;;;5095108;28;20448;-85
2023/04/11 01:16:56;;;;;;;2.90;2.60;;;21.60;65.10;;;;;;5095514;28;20501;-85
2023/04/11 01:19:25;;;;;;;3.30;2.90;;;21.60;65.10;;;;;;5095092;28;20485;-85
2023/04/11 01:21:53;;;;;;;2.97;2.60;;;21.70;65.20;;;;;;5094949;28;20471;-85
2023/04/11 01:24:21;;;;;;;4.27;2.60;;;21.60;65.10;;;;;;5094865;28;20448;-85
2023/04/11 01:26:48;;;;;;;3.00;2.70;;;21.60;65.10;;;;;;5094919;28;20942;-85
2023/04/11 01:29:15;;;;;;;4.53;3.13;;;21.60;65.10;;;;;;5094992;28;20526;-85
2023/04/11 01:31:42;;;;;;;3.03;2.63;;;21.60;65.00;;;;;;5094733;28;20931;-85
2023/04/11 01:34:11;;;;;;;3.70;2.73;;;21.60;65.10;;;;;;5094766;28;20435;-85
2023/04/11 01:36:39;;;;;;;3.33;2.93;;;21.60;65.10;;;;;;5094572;28;20534;-85
2023/04/11 01:39:06;;;;;;;4.80;3.30;;;21.50;64.90;;;;;;5094592;28;20440;-85
2023/04/11 01:41:35;;;;;;;2.30;2.10;;;21.60;65.10;;;;;;5094700;28;20448;-85
2023/04/11 01:44:03;;;;;;;3.30;3.00;;;21.60;65.00;;;;;;5094626;28;20953;-85
2023/04/11 01:46:30;;;;;;;2.63;2.40;;;21.60;65.00;;;;;;5094609;28;20462;-85
2023/04/11 01:48:58;;;;;;;2.80;2.33;;;21.60;65.00;;;;;;5094738;28;20454;-85
2023/04/11 01:51:25;;;;;;;3.00;2.20;;;21.60;65.00;;;;;;5094282;28;20499;-85
2023/04/11 01:53:52;;;;;;;3.47;2.90;;;21.60;65.00;;;;;;5094323;28;20439;-85
2023/04/11 01:56:19;;;;;;;4.10;2.47;;;21.60;65.10;;;;;;5094465;28;20882;-92
2023/04/11 01:58:47;;;;;;;3.63;2.40;;;21.60;65.00;;;;;;5094433;28;20876;-85
2023/04/11 02:01:17;;;;;;;2.93;2.50;;;21.60;65.10;;;;;;5094542;28;20510;-85
2023/04/11 02:03:44;;;;;;;3.00;2.63;;;21.60;65.10;;;;;;5094266;28;20574;-85
2023/04/11 02:06:11;;;;;;;3.10;2.20;;;21.50;65.00;;;;;;5094137;28;20805;-85
2023/04/11 02:08:38;;;;;;;2.13;1.93;;;21.60;65.00;;;;;;5094067;28;20531;-85
2023/04/11 02:11:06;;;;;;;4.40;2.50;;;21.50;65.00;;;;;;5094314;28;20987;-85
2023/04/11 02:13:33;;;;;;;3.63;2.60;;;21.50;64.80;;;;;;5093367;28;20483;-87
2023/04/11 02:16:07;;;;;;;2.40;2.20;;;21.50;64.90;;;;;;5093946;28;20442;-87
2023/04/11 02:18:34;;;;;;;3.03;2.13;;;21.50;64.90;;;;;;5094096;28;20440;-85
2023/04/11 02:21:00;;;;;;;2.97;2.63;;;21.50;64.90;;;;;;5094045;28;20472;-86
2023/04/11 02:23:27;;;;;;;3.03;2.30;;;21.50;64.90;;;;;;5093865;28;20483;-86
2023/04/11 02:25:54;;;;;;;2.43;1.93;;;21.50;64.90;;;;;;5094053;28;20505;-86
2023/04/11 02:28:21;;;;;;;2.90;2.37;;;21.50;65.00;;;;;;5093910;28;20447;-86
2023/04/11 02:30:48;;;;;;;2.60;1.83;;;21.50;65.00;;;;;;5093927;28;20782;-85
2023/04/11 02:33:16;;;;;;;2.97;2.47;;;21.50;65.90;;;;;;5093851;28;20455;-92
2023/04/11 02:35:43;;;;;;;2.63;2.43;;;21.60;65.00;;;;;;5093665;28;20432;-86
2023/04/11 02:38:10;;;;;;;2.30;2.10;;;21.50;64.90;;;;;;5093864;28;20492;-86
2023/04/11 02:40:37;;;;;;;3.07;2.00;;;21.50;64.90;;;;;;5093441;28;20427;-85
2023/04/11 02:43:04;;;;;;;2.40;2.20;;;21.50;64.90;;;;;;5093461;28;20917;-85
2023/04/11 02:45:31;;;;;;;3.13;2.20;;;21.50;64.90;;;;;;5093815;28;20527;-85
2023/04/11 02:47:57;;;;;;;2.90;2.03;;;21.50;64.90;;;;;;5093326;28;20440;-86
2023/04/11 02:50:26;;;;;;;3.87;1.97;;;21.50;64.80;;;;;;5093342;28;20493;-86
2023/04/11 02:52:52;;;;;;;2.70;1.93;;;21.50;64.80;;;;;;5093578;28;20785;-86
2023/04/11 02:55:22;;;;;;;1.70;1.43;;;21.50;64.80;;;;;;5093431;28;20442;-86
2023/04/11 02:57:48;;;;;;;4.30;2.23;;;21.50;64.90;;;;;;5093370;28;20445;-87
2023/04/11 03:00:15;;;;;;;2.87;2.23;;;21.50;64.90;;;;;;5093361;28;20439;-87
2023/04/11 03:02:43;;;;;;;1.90;1.70;;;21.50;64.80;;;;;;5093329;28;20472;-87
2023/04/11 03:05:10;;;;;;;2.30;1.97;;;21.50;64.80;;;;;;5093293;28;20451;-87
2023/04/11 03:07:39;;;;;;;2.23;2.03;;;21.50;64.80;;;;;;5093531;28;20527;-86
2023/04/11 03:10:07;;;;;;;2.50;1.90;;;21.50;64.80;;;;;;5093317;28;20475;-86
2023/04/11 03:12:34;;;;;;;2.27;2.07;;;21.50;64.80;;;;;;5092568;28;20439;-87
2023/04/11 03:15:01;;;;;;;3.03;2.00;;;21.50;64.90;;;;;;5094263;28;20534;-86
2023/04/11 03:17:28;;;;;;;4.33;2.00;;;21.40;64.90;;;;;;5093514;28;20450;-86
2023/04/11 03:19:54;;;;;;;1.80;1.70;;;21.40;64.80;;;;;;5093426;28;20442;-87
2023/04/11 03:22:22;;;;;;;2.73;2.00;;;21.40;64.70;;;;;;5093344;28;20440;-87
2023/04/11 03:24:50;;;;;;;2.97;2.40;;;21.60;64.80;;;;;;5096218;28;20444;-87
2023/04/11 03:27:17;;;;;;;5.63;2.77;;;21.40;64.70;;;;;;5097420;28;20439;-87
2023/04/11 03:29:44;;;;;;;2.70;1.90;;;21.40;64.70;;;;;;5097103;28;20941;-87
2023/04/11 03:32:11;;;;;;;2.47;1.93;;;21.40;64.70;;;;;;5097375;28;20466;-87
2023/04/11 03:34:38;;;;;;;3.70;2.10;;;21.40;64.70;;;;;;5097319;28;20443;-93
2023/04/11 03:37:04;;;;;;;2.30;1.90;;;21.40;64.70;;;;;;5097526;28;20439;-85
2023/04/11 03:39:31;;;;;;;2.00;1.80;;;21.60;64.90;;;;;;5097251;28;20439;-87
2023/04/11 03:42:00;;;;;;;3.20;2.00;;;21.40;64.60;;;;;;5097156;28;20792;-87
2023/04/11 03:44:27;;;;;;;3.00;2.23;;;21.40;64.70;;;;;;5096874;28;20544;-94
2023/04/11 03:46:54;;;;;;;2.53;1.63;;;21.40;64.70;;;;;;5096787;28;20434;-86
2023/04/11 03:49:21;;;;;;;2.27;1.60;;;21.40;64.70;;;;;;5097211;28;20443;-86
2023/04/11 03:51:47;;;;;;;2.30;2.03;;;21.40;64.70;;;;;;5096717;28;20463;-87
2023/04/11 03:54:14;;;;;;;2.07;1.80;;;21.40;64.70;;;;;;5097186;28;20450;-93
2023/04/11 03:56:41;;;;;;;3.37;1.93;;;21.40;64.70;;;;;;5097044;28;20439;-86
2023/04/11 03:59:09;;;;;;;1.60;1.50;;;21.40;64.70;;;;;;5097046;28;20796;-93
2023/04/11 04:01:37;;;;;;;2.57;2.10;;;21.50;64.70;;;;;;5097310;28;20804;-85
2023/04/11 04:04:05;;;;;;;2.37;2.10;;;21.40;64.60;;;;;;5096368;28;20584;-85
2023/04/11 04:06:31;;;;;;;3.17;1.97;;;21.40;64.60;;;;;;5096536;28;20557;-86
2023/04/11 04:08:58;;;;;;;4.43;2.13;;;21.40;64.60;;;;;;5096548;28;21001;-86
2023/04/11 04:11:25;;;;;;;1.73;1.53;;;21.40;64.70;;;;;;5096742;28;20429;-85
2023/04/11 04:13:52;;;;;;;1.87;1.57;;;21.40;64.60;;;;;;5096827;28;20446;-85
2023/04/11 04:16:21;;;;;;;4.83;2.00;;;21.40;64.70;;;;;;5096636;28;20440;-86
2023/04/11 04:18:48;;;;;;;3.23;2.07;;;21.50;64.80;;;;;;5096408;28;20431;-86
2023/04/11 04:21:16;;;;;;;2.50;1.97;;;21.30;64.50;;;;;;5096392;28;20522;-86
2023/04/11 04:23:46;;;;;;;2.57;1.67;;;21.30;64.50;;;;;;5097015;28;20580;-86
2023/04/11 04:26:14;;;;;;;2.20;2.00;;;21.30;64.60;;;;;;5099724;28;20443;-86
2023/04/11 04:28:45;;;;;;;2.30;2.00;;;21.30;64.60;;;;;;5096584;28;20444;-87
2023/04/11 04:31:13;;;;;;;2.80;1.60;;;21.30;64.60;;;;;;5096310;28;20476;-88
2023/04/11 04:33:42;;;;;;;2.50;1.90;;;21.30;64.70;;;;;;5096215;28;20467;-86
2023/04/11 04:36:11;;;;;;;2.90;1.90;;;21.50;65.00;;;;;;5095302;28;20450;-86
2023/04/11 04:38:40;;;;;;;2.43;1.83;;;21.30;64.60;;;;;;5096424;28;20459;-86
2023/04/11 04:41:14;;;;;;;5.00;2.27;;;21.40;64.80;;;;;;5096351;28;20800;-87
2023/04/11 04:43:41;;;;;;;5.47;2.10;;;21.40;64.50;;;;;;5095852;28;20488;-88
2023/04/11 04:46:09;;;;;;;4.53;1.73;;;21.40;64.70;;;;;;5095926;28;20942;-96
2023/04/11 04:48:36;;;;;;;2.10;1.60;;;21.40;64.90;;;;;;5095493;28;20447;-85
2023/04/11 04:51:05;;;;;;;3.30;1.83;;;21.40;64.30;;;;;;5094644;28;20494;-83
2023/04/11 04:53:33;;;;;;;2.07;1.70;;;21.40;64.90;;;;;;5093183;28;20572;-83
2023/04/11 04:56:00;;;;;;;2.40;1.63;;;21.40;64.90;;;;;;5095155;28;20452;-84
2023/04/11 04:58:27;;;;;;;3.03;1.40;;;21.40;65.00;;;;;;5096101;28;20930;-84
2023/04/11 05:00:55;;;;;;;3.00;2.07;;;21.50;65.10;;;;;;5096333;28;20991;-84
2023/04/11 05:03:22;;;;;;;1.90;1.53;;;21.40;65.20;;;;;;5095982;28;20489;-84
2023/04/11 05:05:49;;;;;;;4.17;1.93;;;21.40;65.20;;;;;;5096254;28;20436;-84
2023/04/11 05:08:19;;;;;;;1.73;1.50;;;21.40;65.20;;;;;;5095630;28;20461;-90
2023/04/11 05:10:46;;;;;;;3.37;1.90;;;21.40;65.30;;;;;;5096012;28;20436;-85
2023/04/11 05:13:12;;;;;;;2.60;1.70;;;21.40;65.40;;;;;;5095623;28;20798;-84
2023/04/11 05:15:39;;;;;;;3.87;1.90;;;21.50;65.40;;;;;;5095659;28;20434;-89
2023/04/11 05:18:06;;;;;;;2.73;1.60;;;21.40;65.20;;;;;;5095179;28;20436;-85
2023/04/11 05:20:33;;;;;;;2.20;1.60;;;21.40;65.30;;;;;;5095067;28;20446;-84
2023/04/11 05:23:00;;;;;;;2.23;1.73;;;21.30;65.20;;;;;;5095188;28;21174;-85
2023/04/11 05:25:28;;;;;;;1.70;1.60;;;21.40;65.30;;;;;;5095368;28;20910;-85
2023/04/11 05:27:54;;;;;;;2.90;2.10;;;21.50;65.50;;;;;;5095054;28;20436;-89
2023/04/11 05:30:22;;;;;;;1.80;1.60;;;21.40;64.80;;;;;;5095224;28;20442;-85
2023/04/11 05:32:49;;;;;;;3.67;1.97;;;21.30;65.40;;;;;;5095032;28;20463;-86
2023/04/11 05:35:15;;;;;;;1.73;1.50;;;21.50;65.60;;;;;;5095506;28;20835;-85
2023/04/11 05:37:43;;;;;;;2.30;1.90;;;21.40;65.80;;;;;;5095342;28;20448;-86
2023/04/11 05:40:11;;;;;;;2.80;2.10;;;21.40;65.50;;;;;;5095239;28;20448;-87
2023/04/11 05:42:39;;;;;;;2.50;1.67;;;21.30;65.30;;;;;;5095756;28;20439;-85
2023/04/11 05:45:07;;;;;;;4.80;1.73;;;21.40;65.00;;;;;;5095526;28;20518;-86
2023/04/11 05:47:34;;;;;;;3.53;1.80;;;21.30;65.60;;;;;;5095292;28;20443;-85
2023/04/11 05:50:01;;;;;;;2.13;1.93;;;21.30;65.40;;;;;;5094918;28;20816;-91
2023/04/11 05:52:28;;;;;;;2.17;1.50;;;21.30;65.40;;;;;;5094994;28;20444;-90
2023/04/11 05:54:54;;;;;;;2.80;1.60;;;21.30;65.10;;;;;;5095019;28;20543;-89
2023/04/11 05:57:22;;;;;;;4.97;1.90;;;21.40;65.70;;;;;;5094924;28;20444;-85
2023/04/11 05:59:51;;;;;;;2.33;1.53;;;21.30;65.40;;;;;;5094869;28;20436;-86
2023/04/11 06:02:18;;;;;;;2.67;1.70;;;21.40;65.60;;;;;;5094606;28;20464;-85
2023/04/11 06:04:45;;;;;;;1.63;1.50;;;21.40;65.50;;;;;;5094698;28;20981;-85
2023/04/11 06:07:12;;;;;;;3.90;2.20;;;21.30;65.40;;;;;;5094670;28;20443;-91
2023/04/11 06:09:41;;;;;;;1.50;1.20;;;21.40;65.50;;;;;;5094535;28;20447;-85
2023/04/11 06:12:08;;;;;;;5.90;1.70;;;21.40;65.60;;;;;;5076018;28;20447;-85
2023/04/11 06:14:35;;;;;;;1.70;1.40;;;21.30;65.50;;;;;;5094838;28;20534;-86
2023/04/11 06:17:03;;;;;;;3.93;2.10;;;21.30;65.60;;;;;;5094904;28;20809;-92
2023/04/11 06:19:30;;;;;;;2.83;1.70;;;21.30;65.70;;;;;;5094762;28;20443;-85
2023/04/11 06:21:57;;;;;;;2.20;1.40;;;21.30;65.60;;;;;;5094534;28;20436;-91
2023/04/11 06:24:35;;;;;;;2.77;1.57;;;21.30;65.60;;;;;;5094466;28;20483;-86
2023/04/11 06:27:03;;;;;;;2.77;1.57;;;21.30;65.60;;;;;;5094305;28;20433;-86
2023/04/11 06:29:30;;;;;;;2.10;1.73;;;21.30;65.70;;;;;;5094585;28;20542;-86
2023/04/11 06:31:58;;;;;;;1.80;1.43;;;21.30;65.70;;;;;;5094624;28;20459;-91
2023/04/11 06:34:27;;;;;;;1.60;1.33;;;21.30;65.60;;;;;;5095234;28;20438;-89
2023/04/11 06:36:54;;;;;;;2.27;2.07;;;21.30;65.70;;;;;;5094531;28;20436;-88
2023/04/11 06:39:21;;;;;;;2.33;1.70;;;21.30;65.50;;;;;;5076298;28;20448;-87
2023/04/11 06:41:49;;;;;;;4.30;1.40;;;21.30;65.60;;;;;;5094325;28;20443;-86
2023/04/11 06:44:16;;;;;;;3.73;2.03;;;21.50;65.70;;;;;;5093942;28;20488;-84
2023/04/11 06:46:42;;;;;;;1.60;1.43;;;21.30;65.50;;;;;;5094342;28;20442;-91
2023/04/11 06:49:11;;;;;;;1.67;1.40;;;21.40;65.60;;;;;;5107319;28;20450;-86
2023/04/11 06:51:39;;;;;;;1.70;1.50;;;21.40;65.40;;;;;;5115271;28;20467;-85
2023/04/11 06:54:06;;;;;;;2.80;1.60;;;21.40;65.30;;;;;;5110117;28;20510;-84
2023/04/11 06:56:33;;;;;;;2.70;1.90;;;21.40;65.10;;;;;;5107087;28;20506;-84
2023/04/11 06:59:00;;;;;;;5.40;2.10;;;21.40;65.30;;;;;;5094387;28;20531;-86
2023/04/11 07:01:32;;;;;;;2.10;1.67;;;21.40;65.30;;;;;;5094958;28;20455;-86
2023/04/11 07:03:59;;;;;;;3.73;1.80;;;21.40;65.30;;;;;;5094270;28;20479;-89
2023/04/11 07:06:26;;;;;;;1.93;1.30;;;21.40;65.20;;;;;;5093876;28;20447;-86
2023/04/11 07:08:55;;;;;;;3.73;1.60;;;21.50;65.20;;;;;;5093319;28;20454;-86
2023/04/11 07:11:22;;;;;;;1.50;1.40;;;21.40;65.10;;;;;;5093244;28;20566;-86
2023/04/11 07:13:49;;;;;;;2.70;1.53;;;21.40;65.10;;;;;;5093627;28;20792;-85
2023/04/11 07:16:16;;;;;;;3.90;1.87;;;21.40;65.10;;;;;;5093561;28;20444;-87
2023/04/11 07:18:43;;;;;;;2.73;1.63;;;21.50;65.20;;;;;;5093337;28;20458;-87
2023/04/11 07:21:11;;;;;;;2.03;1.20;;;21.40;65.00;;;;;;5093559;28;20436;-87
2023/04/11 07:23:41;;;;;;;3.67;1.80;;;21.40;65.00;;;;;;5095344;28;20439;-84
2023/04/11 07:26:10;;;;;;;3.20;1.70;;;21.40;64.90;;;;;;5096738;28;20449;-90
2023/04/11 07:28:37;;;;;;;2.07;1.20;;;21.60;65.10;;;;;;5095085;28;20539;-85
2023/04/11 07:31:04;;;;;;;3.00;1.50;;;21.50;64.80;;;;;;5077113;28;20443;-86
2023/04/11 07:33:31;;;;;;;2.70;1.80;;;21.50;64.70;;;;;;5094906;28;20464;-84
2023/04/11 07:35:58;;;;;;;1.90;1.43;;;21.50;64.70;;;;;;5095250;28;20444;-89
2023/04/11 07:38:28;;;;;;;2.63;1.83;;;21.50;64.70;;;;;;5095236;28;20447;-85
2023/04/11 07:40:55;;;;;;;4.30;1.87;;;21.50;64.60;;;;;;5095378;28;20501;-89
2023/04/11 07:43:28;;;;;;;3.37;2.27;;;21.50;63.60;;;;;;5095608;28;20439;-90
2023/04/11 07:45:57;;;;;;;7.77;1.53;;;21.50;64.00;;;;;;5095955;28;20439;-89
2023/04/11 07:48:26;;;;;;;2.43;1.63;;;21.50;64.30;;;;;;5077837;28;20435;-85
2023/04/11 07:50:53;;;;;;;5.53;1.57;;;21.50;64.50;;;;;;5095519;28;20463;-84
2023/04/11 07:53:21;;;;;;;3.20;1.30;;;21.50;64.60;;;;;;5096133;28;20510;-85
2023/04/11 07:55:48;;;;;;;2.03;1.40;;;21.50;64.70;;;;;;5095197;28;20436;-85
2023/04/11 07:58:15;;;;;;;3.47;1.40;;;21.50;64.80;;;;;;5095782;28;20445;-86
2023/04/11 08:00:43;;;;;;;1.90;1.30;;;21.60;65.00;;;;;;5095421;28;20443;-86
2023/04/11 08:03:11;;;;;;;2.80;1.50;;;21.60;65.00;;;;;;5095258;28;20467;-88
2023/04/11 08:05:39;;;;;;;1.87;1.40;;;21.60;64.90;;;;;;5095138;28;20479;-85
2023/04/11 08:08:06;;;;;;;2.50;1.30;;;21.60;65.00;;;;;;5095538;28;20443;-85
2023/04/11 08:10:33;;;;;;;6.03;1.83;;;21.50;65.00;;;;;;5096108;28;20530;-85
2023/04/11 08:13:01;;;;;;;2.43;1.23;;;21.60;65.10;;;;;;5100093;28;20423;-84
2023/04/11 08:15:27;;;;;;;2.30;1.20;;;21.60;65.10;;;;;;5100455;28;20469;-85
2023/04/11 08:17:56;;;;;;;4.90;1.50;;;21.60;65.30;;;;;;5100619;28;20935;-86
2023/04/11 08:20:24;;;;;;;1.97;1.63;;;21.60;65.40;;;;;;5099161;28;20439;-85
2023/04/11 08:22:50;;;;;;;3.70;1.40;;;21.60;65.50;;;;;;5098986;28;20440;-85
2023/04/11 08:25:21;;;;;;;3.37;1.50;;;21.80;65.60;;;;;;5098133;28;20489;-86
2023/04/11 08:27:48;;;;;;;4.83;1.40;;;21.70;65.60;;;;;;5098413;28;20960;-85
2023/04/11 08:30:16;;;;;;;1.73;1.30;;;21.60;65.50;;;;;;5097565;28;20440;-86
2023/04/11 08:32:43;;;;;;;3.53;1.20;;;21.60;65.30;;;;;;5096285;28;20474;-89
2023/04/11 08:35:11;;;;;;;2.30;1.70;;;21.60;65.30;;;;;;5096437;28;20475;-89
2023/04/11 08:37:38;;;;;;;1.67;1.20;;;21.80;65.40;;;;;;5097664;28;20960;-86
2023/04/11 08:40:06;;;;;;;2.63;1.60;;;21.60;65.20;;;;;;5096447;28;20812;-87
2023/04/11 08:42:33;;;;;;;5.90;1.47;;;21.60;65.30;;;;;;5096524;28;20863;-85
2023/04/11 08:45:02;;;;;;;3.07;1.40;;;21.60;65.40;;;;;;5096252;28;20479;-88
2023/04/11 08:47:29;;;;;;;2.20;1.33;;;21.70;65.50;;;;;;5096323;28;20942;-86
2023/04/11 08:49:56;;;;;;;2.83;1.50;;;21.70;65.50;;;;;;5096289;28;20828;-88
2023/04/11 08:52:25;;;;;;;4.03;1.70;;;21.70;65.50;;;;;;5096207;28;20437;-86
2023/04/11 08:54:54;;;;;;;4.10;1.50;;;21.70;65.50;;;;;;5096210;28;20800;-90
2023/04/11 08:57:25;;;;;;;1.43;1.33;;;21.70;65.50;;;;;;5096036;28;20926;-90
2023/04/11 08:59:53;;;;;;;3.20;1.33;;;21.70;65.40;;;;;;5095747;28;21003;-87
2023/04/11 09:02:20;;;;;;;3.40;1.43;;;21.70;65.40;;;;;;5095869;28;20462;-86
2023/04/11 09:04:47;;;;;;;1.80;1.37;;;21.90;65.60;;;;;;5095822;28;20826;-86
2023/04/11 09:07:15;;;;;;;1.63;1.27;;;21.70;65.30;;;;;;5095953;28;20797;-87
2023/04/11 09:09:43;;;;;;;1.90;1.37;;;21.70;65.50;;;;;;5095858;28;20432;-89
2023/04/11 09:12:12;;;;;;;1.80;1.40;;;21.70;65.50;;;;;;5095756;28;20444;-88
2023/04/11 09:14:39;;;;;;;2.90;1.53;;;21.80;65.70;;;;;;5095625;28;20465;-85
2023/04/11 09:17:12;;;;;;;1.73;1.27;;;21.70;65.50;;;;;;5095951;28;20781;-85
2023/04/11 09:19:40;;;;;;;3.43;1.73;;;21.80;65.70;;;;;;5095614;28;20479;-85
2023/04/11 09:22:07;;;;;;;3.10;1.30;;;21.80;65.70;;;;;;5095051;28;20436;-86
2023/04/11 09:24:34;;;;;;;3.83;1.83;;;21.90;65.70;;;;;;5095527;28;20890;-85
2023/04/11 09:27:14;;;;;;;3.17;1.50;;;21.80;65.70;;;;;;5095390;28;20440;-89
2023/04/11 09:29:44;;;;;;;3.93;1.73;;;21.80;65.60;;;;;;5095820;28;20523;-88
2023/04/11 09:32:28;;;;;;;1.30;1.10;;;21.90;65.80;;;;;;5095166;28;20466;-87
2023/04/11 09:35:08;;;;;;;1.83;1.13;;;21.90;65.80;;;;;;5097401;28;20431;-85
2023/04/11 09:37:43;;;;;;;2.33;1.47;;;21.90;65.80;;;;;;5101640;28;20428;-85
2023/04/11 09:40:10;;;;;;;1.80;1.43;;;22.00;66.00;;;;;;5097115;28;20484;-88
2023/04/11 09:42:40;;;;;;;3.97;1.53;;;22.00;66.00;;;;;;5077084;28;20443;-85
2023/04/11 09:45:17;;;;;;;2.80;1.60;;;22.00;66.10;;;;;;5095016;28;20533;-86
2023/04/11 09:47:44;;;;;;;1.60;1.50;;;22.10;66.20;;;;;;5095045;28;20439;-87
2023/04/11 09:50:12;;;;;;;2.07;1.30;;;22.10;66.20;;;;;;5076682;28;20475;-88
2023/04/11 09:52:41;;;;;;;1.40;1.20;;;22.20;66.10;;;;;;5094949;28;20436;-85
2023/04/11 09:55:10;;;;;;;2.70;1.50;;;22.20;66.10;;;;;;5076818;28;20942;-85
2023/04/11 09:57:44;;;;;;;1.43;1.20;;;22.20;66.10;;;;;;5076585;28;20432;-85
2023/04/11 10:00:15;;;;;;;1.60;1.10;;;22.20;66.00;;;;;;5094676;28;20420;-88
2023/04/11 10:02:43;;;;;;;3.63;1.30;;;22.20;66.00;;;;;;5077289;28;20466;-88
2023/04/11 10:05:11;;;;;;;1.70;1.30;;;22.20;65.80;;;;;;5094571;28;20615;-87
2023/04/11 10:07:46;;;;;;;2.73;1.40;;;22.20;65.70;;;;;;5094617;28;20448;-86
2023/04/11 10:10:18;;;;;;;1.87;1.30;;;22.20;65.80;;;;;;5094626;28;20454;-88
2023/04/11 10:12:47;;;;;;;1.80;1.30;;;22.20;65.80;;;;;;5094620;28;20442;-85
2023/04/11 10:15:14;;;;;;;2.13;1.10;;;22.20;65.70;;;;;;5094607;28;20439;-88
2023/04/11 10:17:41;;;;;;;2.00;1.17;;;22.20;66.00;;;;;;5094650;28;20439;-88
2023/04/11 10:20:42;;;;;;;1.60;1.10;;;22.30;66.00;;;;;;5094664;28;20474;-86
2023/04/11 10:23:09;;;;;;;1.70;1.13;;;22.30;66.00;;;;;;5089740;28;20526;-84
2023/04/11 10:25:52;;;;;;;1.93;1.40;;;22.30;66.00;;;;;;5094942;28;20483;-86
2023/04/11 10:28:34;;;;;;;2.30;1.70;;;22.30;65.90;;;;;;5097510;28;20972;-85
2023/04/11 10:31:03;;;;;;;1.83;1.20;;;22.40;66.10;;;;;;5096508;28;20433;-87
2023/04/11 10:33:30;;;;;;;1.57;1.23;;;22.30;65.90;;;;;;5095675;28;20812;-85
2023/04/11 10:36:00;;;;;;;1.70;1.17;;;22.40;66.90;;;;;;5094944;28;20498;-89
2023/04/11 10:38:50;;;;;;;2.03;1.30;;;22.40;66.10;;;;;;5094386;28;20439;-86
2023/04/11 10:41:26;;;;;;;1.27;1.00;;;22.50;66.30;;;;;;5094195;28;20469;-89
2023/04/11 10:44:19;;;;;;;2.43;1.20;;;22.50;66.30;;;;;;5094397;28;20430;-86
2023/04/11 10:46:48;;;;;;;1.43;1.33;;;22.60;66.50;;;;;;5094665;28;20978;-87
2023/04/11 10:49:33;;;;;;;1.23;1.13;;;22.60;66.50;;;;;;5094527;28;20539;-85
2023/04/11 10:52:24;;;;;;;1.47;1.00;;;22.70;66.60;;;;;;5093952;28;20435;-86
2023/04/11 10:54:53;;;;;;;2.00;1.10;;;22.70;66.30;;;;;;5083820;28;20532;-86
2023/04/11 10:57:21;;;;;;;1.77;1.17;;;22.70;66.30;;;;;;5093965;28;20442;-86
2023/04/11 10:59:59;;;;;;;1.50;1.23;;;22.70;66.40;;;;;;5094055;28;20454;-86
2023/04/11 11:02:39;;;;;;;1.40;0.90;;;22.70;66.20;;;;;;5093925;28;20455;-86
2023/04/11 11:05:20;;;;;;;2.30;1.23;;;22.80;66.10;;;;;;5093987;28;20468;-86
2023/04/11 11:11:11;;;;;;;1.77;1.40;;;22.70;66.20;;;;;;5093926;28;20968;-85
2023/04/11 11:13:40;;;;;;;2.30;1.10;;;22.70;66.10;;;;;;5075950;28;20443;-85
2023/04/11 11:16:09;;;;;;;2.10;1.40;;;22.70;66.00;;;;;;5093956;28;20440;-85
2023/04/11 11:18:37;;;;;;;3.40;1.10;;;22.70;66.10;;;;;;5093716;28;20509;-86
2023/04/11 11:21:04;;;;;;;1.97;1.00;;;22.90;67.10;;;;;;5093819;28;20793;-88
2023/04/11 11:23:31;;;;;;;1.30;1.10;;;22.70;66.00;;;;;;5093969;28;20443;-87
2023/04/11 11:25:59;;;;;;;2.30;1.20;;;22.70;65.90;;;;;;5075969;28;20483;-90
2023/04/11 11:28:26;;;;;;;1.30;1.20;;;22.60;66.40;;;;;;5093409;28;20447;-87
2023/04/11 11:30:55;;;;;;;1.33;0.93;;;22.60;65.90;;;;;;5093918;28;20445;-86
2023/04/11 11:33:25;;;;;;;2.13;1.33;;;22.60;65.90;;;;;;5093650;28;20864;-86
2023/04/11 11:35:56;;;;;;;1.30;1.07;;;22.60;66.00;;;;;;5093849;28;20439;-86
2023/04/11 11:38:25;;;;;;;1.33;1.10;;;22.60;66.20;;;;;;5093640;28;20544;-89
2023/04/11 11:40:53;;;;;;;1.73;1.10;;;22.50;66.00;;;;;;5093520;28;20493;-89
2023/04/11 11:43:20;;;;;;;2.03;1.40;;;22.50;65.90;;;;;;5093859;28;20436;-86
2023/04/11 11:45:46;;;;;;;1.67;1.10;;;22.50;66.00;;;;;;5095903;28;20469;-86
2023/04/11 11:48:21;;;;;;;1.53;1.10;;;22.50;66.40;;;;;;5097117;28;20443;-88
2023/04/11 11:50:56;;;;;;;2.00;1.00;;;22.60;66.80;;;;;;5096888;28;21216;-86
2023/04/11 11:53:23;;;;;;;1.43;1.10;;;22.60;66.80;;;;;;5097241;28;20813;-90
2023/04/11 11:55:50;;;;;;;2.63;1.00;;;22.60;66.60;;;;;;5097066;28;20450;-86
2023/04/11 11:58:18;;;;;;;3.40;1.30;;;22.60;66.40;;;;;;5096865;28;20439;-86
2023/04/11 12:00:48;;;;;;;2.23;1.20;;;22.60;66.30;;;;;;5097235;28;20480;-86
2023/04/11 12:03:19;;;;;;;1.43;0.93;;;22.60;66.20;;;;;;5097823;28;20455;-86
2023/04/11 12:05:47;;;;;;;2.80;1.40;;;22.60;66.20;;;;;;5097555;28;20487;-85
2023/04/11 12:08:16;;;;;;;3.83;1.20;;;22.50;65.90;;;;;;5097348;28;20953;-88
2023/04/11 12:10:45;;;;;;;1.20;1.07;;;22.50;65.90;;;;;;5097682;28;20447;-90
2023/04/11 12:13:14;;;;;;;1.30;1.00;;;22.50;65.80;;;;;;5103771;28;20435;-86
2023/04/11 12:15:45;;;;;;;2.03;1.20;;;22.50;65.90;;;;;;5104232;28;20507;-85
2023/04/11 12:18:12;;;;;;;2.43;1.90;;;22.50;65.90;;;;;;5106630;28;20918;-86
2023/04/11 12:20:39;;;;;;;1.80;1.20;;;22.50;65.90;;;;;;5102881;28;20432;-82
2023/04/11 12:23:06;;;;;;;4.50;1.17;;;22.40;65.70;;;;;;5096883;28;20459;-85
2023/04/11 12:25:34;;;;;;;2.07;1.10;;;22.40;65.50;;;;;;5096391;28;20480;-86
2023/04/11 12:28:01;;;;;;;1.80;1.23;;;22.50;65.80;;;;;;5096608;28;20444;-86
2023/04/11 12:30:28;;;;;;;2.17;1.17;;;22.40;65.90;;;;;;5078400;28;20447;-85
2023/04/11 12:32:55;;;;;;;4.50;1.30;;;22.40;65.90;;;;;;5078359;28;20467;-88
2023/04/11 12:35:21;;;;;;;1.70;1.13;;;22.40;65.80;;;;;;5096229;28;20451;-86
2023/04/11 12:37:48;;;;;;;4.20;1.50;;;22.40;66.00;;;;;;5096262;28;20448;-86
2023/04/11 12:40:16;;;;;;;2.10;1.30;;;22.50;66.10;;;;;;5096621;28;20531;-85
2023/04/11 12:42:47;;;;;;;1.53;1.20;;;22.40;66.00;;;;;;5098466;28;20935;-90
2023/04/11 12:45:15;;;;;;;5.30;1.30;;;22.30;64.50;;;;;;5096964;28;20548;-85
2023/04/11 12:47:43;;;;;;;1.13;0.93;;;22.40;64.70;;;;;;5078355;28;20497;-90
2023/04/11 12:50:11;;;;;;;4.40;1.50;;;22.50;65.50;;;;;;5096214;28;20478;-89
2023/04/11 12:52:38;;;;;;;6.27;1.40;;;22.40;65.60;;;;;;5096334;28;20440;-85
2023/04/11 12:55:06;;;;;;;1.70;1.30;;;22.40;65.70;;;;;;5096335;28;20447;-85
2023/04/11 12:57:33;;;;;;;2.40;1.00;;;22.40;65.80;;;;;;5095229;28;20448;-91